sensor_id;sensor_type;location;lat;lon;timestamp;P1;durP1;ratioP1;P2;durP2;ratioP2
32780;SDS011;19136;47.032;15.502;2024-01-16T00:01:11;31.08;;;13.18;;
32780;SDS011;19136;47.032;15.502;2024-01-16T00:03:38;31.50;;;14.20;;
32780;SDS011;19136;47.032;15.502;2024-01-16T00:06:03;33.47;;;13.93;;
32780;SDS011;19136;47.032;15.502;2024-01-16T00:08:29;30.33;;;13.48;;
32780;SDS011;19136;47.032;15.502;2024-01-16T00:10:54;36.20;;;13.93;;
32780;SDS011;19136;47.032;15.502;2024-01-16T00:13:20;31.75;;;14.10;;
32780;SDS011;19136;47.032;15.502;2024-01-16T00:15:45;31.55;;;14.38;;
32780;SDS011;19136;47.032;15.502;2024-01-16T00:18:11;32.60;;;13.00;;
32780;SDS011;19136;47.032;15.502;2024-01-16T00:20:36;30.52;;;12.45;;
32780;SDS011;19136;47.032;15.502;2024-01-16T00:23:02;27.13;;;11.95;;
32780;SDS011;19136;47.032;15.502;2024-01-16T00:25:27;35.00;;;12.55;;
32780;SDS011;19136;47.032;15.502;2024-01-16T00:27:54;30.10;;;12.70;;
32780;SDS011;19136;47.032;15.502;2024-01-16T00:30:19;28.27;;;11.85;;
32780;SDS011;19136;47.032;15.502;2024-01-16T00:32:45;29.00;;;11.43;;
32780;SDS011;19136;47.032;15.502;2024-01-16T00:35:10;26.20;;;10.95;;
32780;SDS011;19136;47.032;15.502;2024-01-16T00:37:36;25.95;;;11.43;;
32780;SDS011;19136;47.032;15.502;2024-01-16T00:40:02;28.77;;;11.63;;
32780;SDS011;19136;47.032;15.502;2024-01-16T00:42:30;23.88;;;9.50;;
32780;SDS011;19136;47.032;15.502;2024-01-16T00:44:58;24.33;;;9.80;;
32780;SDS011;19136;47.032;15.502;2024-01-16T00:47:24;19.25;;;8.95;;
32780;SDS011;19136;47.032;15.502;2024-01-16T00:49:49;20.23;;;9.13;;
32780;SDS011;19136;47.032;15.502;2024-01-16T00:52:15;22.17;;;9.02;;
32780;SDS011;19136;47.032;15.502;2024-01-16T00:54:40;18.27;;;8.85;;
32780;SDS011;19136;47.032;15.502;2024-01-16T00:57:10;21.27;;;9.63;;
32780;SDS011;19136;47.032;15.502;2024-01-16T00:59:36;19.05;;;9.23;;
32780;SDS011;19136;47.032;15.502;2024-01-16T01:02:02;21.20;;;8.13;;
32780;SDS011;19136;47.032;15.502;2024-01-16T01:04:29;17.92;;;8.45;;
32780;SDS011;19136;47.032;15.502;2024-01-16T01:06:54;15.95;;;7.47;;
32780;SDS011;19136;47.032;15.502;2024-01-16T01:09:21;16.20;;;8.15;;
32780;SDS011;19136;47.032;15.502;2024-01-16T01:11:47;19.45;;;7.80;;
32780;SDS011;19136;47.032;15.502;2024-01-16T01:14:12;16.40;;;7.53;;
32780;SDS011;19136;47.032;15.502;2024-01-16T01:16:38;22.65;;;9.02;;
32780;SDS011;19136;47.032;15.502;2024-01-16T01:19:03;18.65;;;7.68;;
32780;SDS011;19136;47.032;15.502;2024-01-16T01:21:29;17.10;;;7.78;;
32780;SDS011;19136;47.032;15.502;2024-01-16T01:23:54;16.13;;;6.93;;
32780;SDS011;19136;47.032;15.502;2024-01-16T01:26:20;18.40;;;8.07;;
32780;SDS011;19136;47.032;15.502;2024-01-16T01:28:46;17.13;;;8.35;;
32780;SDS011;19136;47.032;15.502;2024-01-16T01:31:12;17.10;;;7.65;;
32780;SDS011;19136;47.032;15.502;2024-01-16T01:33:38;16.63;;;7.32;;
32780;SDS011;19136;47.032;15.502;2024-01-16T01:36:06;16.60;;;7.63;;
32780;SDS011;19136;47.032;15.502;2024-01-16T01:38:32;17.60;;;7.45;;
32780;SDS011;19136;47.032;15.502;2024-01-16T01:40:58;17.40;;;7.13;;
32780;SDS011;19136;47.032;15.502;2024-01-16T01:43:25;15.10;;;7.13;;
32780;SDS011;19136;47.032;15.502;2024-01-16T01:48:39;16.15;;;6.40;;
32780;SDS011;19136;47.032;15.502;2024-01-16T01:51:05;14.40;;;6.50;;
32780;SDS011;19136;47.032;15.502;2024-01-16T01:53:31;14.23;;;5.95;;
32780;SDS011;19136;47.032;15.502;2024-01-16T01:55:59;16.15;;;6.45;;
32780;SDS011;19136;47.032;15.502;2024-01-16T01:58:24;17.80;;;6.80;;
32780;SDS011;19136;47.032;15.502;2024-01-16T02:00:50;17.23;;;6.80;;
32780;SDS011;19136;47.032;15.502;2024-01-16T02:03:15;15.60;;;7.30;;
32780;SDS011;19136;47.032;15.502;2024-01-16T02:05:41;16.50;;;6.32;;
32780;SDS011;19136;47.032;15.502;2024-01-16T02:08:07;15.60;;;6.47;;
32780;SDS011;19136;47.032;15.502;2024-01-16T02:10:34;14.48;;;5.43;;
32780;SDS011;19136;47.032;15.502;2024-01-16T02:13:01;15.55;;;6.38;;
32780;SDS011;19136;47.032;15.502;2024-01-16T02:15:26;14.15;;;6.22;;
32780;SDS011;19136;47.032;15.502;2024-01-16T02:17:52;13.48;;;6.20;;
32780;SDS011;19136;47.032;15.502;2024-01-16T02:20:17;18.92;;;6.45;;
32780;SDS011;19136;47.032;15.502;2024-01-16T02:22:44;14.38;;;6.45;;
32780;SDS011;19136;47.032;15.502;2024-01-16T02:25:11;13.93;;;5.28;;
32780;SDS011;19136;47.032;15.502;2024-01-16T02:27:37;13.60;;;6.22;;
32780;SDS011;19136;47.032;15.502;2024-01-16T02:30:02;13.38;;;5.40;;
32780;SDS011;19136;47.032;15.502;2024-01-16T02:32:28;14.80;;;5.90;;
32780;SDS011;19136;47.032;15.502;2024-01-16T02:34:54;13.55;;;5.85;;
32780;SDS011;19136;47.032;15.502;2024-01-16T02:37:19;15.52;;;6.25;;
32780;SDS011;19136;47.032;15.502;2024-01-16T02:39:46;13.88;;;6.05;;
32780;SDS011;19136;47.032;15.502;2024-01-16T02:42:11;11.20;;;5.20;;
32780;SDS011;19136;47.032;15.502;2024-01-16T02:44:39;16.23;;;5.47;;
32780;SDS011;19136;47.032;15.502;2024-01-16T02:47:05;14.27;;;5.45;;
32780;SDS011;19136;47.032;15.502;2024-01-16T02:49:32;10.00;;;4.93;;
32780;SDS011;19136;47.032;15.502;2024-01-16T02:51:58;12.00;;;4.70;;
32780;SDS011;19136;47.032;15.502;2024-01-16T02:54:23;10.68;;;4.78;;
32780;SDS011;19136;47.032;15.502;2024-01-16T02:56:49;14.05;;;5.35;;
32780;SDS011;19136;47.032;15.502;2024-01-16T02:59:15;10.95;;;4.95;;
32780;SDS011;19136;47.032;15.502;2024-01-16T03:01:40;12.82;;;5.30;;
32780;SDS011;19136;47.032;15.502;2024-01-16T03:04:08;9.82;;;4.68;;
32780;SDS011;19136;47.032;15.502;2024-01-16T03:06:34;14.95;;;5.07;;
32780;SDS011;19136;47.032;15.502;2024-01-16T03:08:59;10.32;;;5.22;;
32780;SDS011;19136;47.032;15.502;2024-01-16T03:11:25;8.63;;;4.70;;
32780;SDS011;19136;47.032;15.502;2024-01-16T03:13:51;19.58;;;4.30;;
32780;SDS011;19136;47.032;15.502;2024-01-16T03:16:18;11.25;;;4.45;;
32780;SDS011;19136;47.032;15.502;2024-01-16T03:18:43;8.77;;;3.83;;
32780;SDS011;19136;47.032;15.502;2024-01-16T03:21:10;11.70;;;4.22;;
32780;SDS011;19136;47.032;15.502;2024-01-16T03:23:38;8.63;;;3.75;;
32780;SDS011;19136;47.032;15.502;2024-01-16T03:26:04;9.23;;;3.65;;
32780;SDS011;19136;47.032;15.502;2024-01-16T03:28:32;12.02;;;3.92;;
32780;SDS011;19136;47.032;15.502;2024-01-16T03:30:58;7.90;;;3.63;;
32780;SDS011;19136;47.032;15.502;2024-01-16T03:33:25;9.93;;;3.78;;
32780;SDS011;19136;47.032;15.502;2024-01-16T03:35:50;8.45;;;3.33;;
32780;SDS011;19136;47.032;15.502;2024-01-16T03:38:15;6.78;;;3.47;;
32780;SDS011;19136;47.032;15.502;2024-01-16T03:40:41;9.68;;;3.72;;
32780;SDS011;19136;47.032;15.502;2024-01-16T03:43:06;8.50;;;3.38;;
32780;SDS011;19136;47.032;15.502;2024-01-16T03:45:32;13.02;;;3.47;;
32780;SDS011;19136;47.032;15.502;2024-01-16T03:47:58;10.02;;;3.85;;
32780;SDS011;19136;47.032;15.502;2024-01-16T03:50:26;8.55;;;3.92;;
32780;SDS011;19136;47.032;15.502;2024-01-16T03:52:52;12.32;;;3.28;;
32780;SDS011;19136;47.032;15.502;2024-01-16T03:55:17;10.05;;;3.55;;
32780;SDS011;19136;47.032;15.502;2024-01-16T03:57:43;8.05;;;3.38;;
32780;SDS011;19136;47.032;15.502;2024-01-16T04:00:08;9.95;;;3.30;;
32780;SDS011;19136;47.032;15.502;2024-01-16T04:02:40;6.38;;;3.05;;
32780;SDS011;19136;47.032;15.502;2024-01-16T04:05:06;6.13;;;2.88;;
32780;SDS011;19136;47.032;15.502;2024-01-16T04:07:31;6.93;;;2.75;;
32780;SDS011;19136;47.032;15.502;2024-01-16T04:10:00;4.75;;;2.50;;
32780;SDS011;19136;47.032;15.502;2024-01-16T04:12:26;6.57;;;2.58;;
32780;SDS011;19136;47.032;15.502;2024-01-16T04:14:52;7.63;;;2.88;;
32780;SDS011;19136;47.032;15.502;2024-01-16T04:17:18;6.22;;;2.72;;
32780;SDS011;19136;47.032;15.502;2024-01-16T04:19:45;6.72;;;2.33;;
32780;SDS011;19136;47.032;15.502;2024-01-16T04:22:11;5.53;;;2.00;;
32780;SDS011;19136;47.032;15.502;2024-01-16T04:24:36;5.10;;;2.60;;
32780;SDS011;19136;47.032;15.502;2024-01-16T04:27:07;8.00;;;2.10;;
32780;SDS011;19136;47.032;15.502;2024-01-16T04:29:33;6.50;;;2.25;;
32780;SDS011;19136;47.032;15.502;2024-01-16T04:31:58;4.65;;;2.30;;
32780;SDS011;19136;47.032;15.502;2024-01-16T04:34:24;7.93;;;2.35;;
32780;SDS011;19136;47.032;15.502;2024-01-16T04:36:52;6.55;;;2.10;;
32780;SDS011;19136;47.032;15.502;2024-01-16T04:39:17;6.28;;;2.20;;
32780;SDS011;19136;47.032;15.502;2024-01-16T04:41:43;10.93;;;2.22;;
32780;SDS011;19136;47.032;15.502;2024-01-16T04:44:08;7.75;;;2.75;;
32780;SDS011;19136;47.032;15.502;2024-01-16T04:46:34;6.45;;;2.50;;
32780;SDS011;19136;47.032;15.502;2024-01-16T04:49:00;9.00;;;2.25;;
32780;SDS011;19136;47.032;15.502;2024-01-16T04:51:25;14.60;;;2.65;;
32780;SDS011;19136;47.032;15.502;2024-01-16T04:53:51;14.57;;;2.13;;
32780;SDS011;19136;47.032;15.502;2024-01-16T04:56:16;6.00;;;2.88;;
32780;SDS011;19136;47.032;15.502;2024-01-16T04:58:43;9.77;;;3.03;;
32780;SDS011;19136;47.032;15.502;2024-01-16T05:01:09;5.82;;;2.60;;
32780;SDS011;19136;47.032;15.502;2024-01-16T05:03:34;7.15;;;2.78;;
32780;SDS011;19136;47.032;15.502;2024-01-16T05:05:59;10.52;;;2.63;;
32780;SDS011;19136;47.032;15.502;2024-01-16T05:08:25;12.07;;;2.80;;
32780;SDS011;19136;47.032;15.502;2024-01-16T05:10:54;8.07;;;2.72;;
32780;SDS011;19136;47.032;15.502;2024-01-16T05:13:20;8.45;;;2.55;;
32780;SDS011;19136;47.032;15.502;2024-01-16T05:15:46;12.57;;;2.70;;
32780;SDS011;19136;47.032;15.502;2024-01-16T05:18:11;6.28;;;2.70;;
32780;SDS011;19136;47.032;15.502;2024-01-16T05:20:37;16.35;;;3.17;;
32780;SDS011;19136;47.032;15.502;2024-01-16T05:23:02;17.23;;;3.67;;
32780;SDS011;19136;47.032;15.502;2024-01-16T05:25:28;17.60;;;3.90;;
32780;SDS011;19136;47.032;15.502;2024-01-16T05:27:54;19.23;;;3.45;;
32780;SDS011;19136;47.032;15.502;2024-01-16T05:30:19;9.73;;;3.88;;
32780;SDS011;19136;47.032;15.502;2024-01-16T05:32:45;19.08;;;3.92;;
32780;SDS011;19136;47.032;15.502;2024-01-16T05:35:10;14.73;;;4.05;;
32780;SDS011;19136;47.032;15.502;2024-01-16T05:37:36;15.35;;;4.20;;
32780;SDS011;19136;47.032;15.502;2024-01-16T05:40:02;11.95;;;3.95;;
32780;SDS011;19136;47.032;15.502;2024-01-16T05:42:28;18.00;;;3.67;;
32780;SDS011;19136;47.032;15.502;2024-01-16T05:44:54;23.60;;;4.93;;
32780;SDS011;19136;47.032;15.502;2024-01-16T05:47:19;17.83;;;4.38;;
32780;SDS011;19136;47.032;15.502;2024-01-16T05:49:45;16.80;;;4.38;;
32780;SDS011;19136;47.032;15.502;2024-01-16T05:52:10;20.95;;;4.05;;
32780;SDS011;19136;47.032;15.502;2024-01-16T05:54:37;21.98;;;3.65;;
32780;SDS011;19136;47.032;15.502;2024-01-16T05:57:02;10.98;;;3.17;;
32780;SDS011;19136;47.032;15.502;2024-01-16T05:59:28;23.05;;;4.28;;
32780;SDS011;19136;47.032;15.502;2024-01-16T06:01:54;14.63;;;3.35;;
32780;SDS011;19136;47.032;15.502;2024-01-16T06:04:19;13.88;;;3.72;;
32780;SDS011;19136;47.032;15.502;2024-01-16T06:06:45;12.85;;;3.88;;
32780;SDS011;19136;47.032;15.502;2024-01-16T06:09:12;18.20;;;3.83;;
32780;SDS011;19136;47.032;15.502;2024-01-16T06:11:39;20.10;;;4.60;;
32780;SDS011;19136;47.032;15.502;2024-01-16T06:14:06;15.65;;;4.72;;
32780;SDS011;19136;47.032;15.502;2024-01-16T06:16:32;19.98;;;3.75;;
32780;SDS011;19136;47.032;15.502;2024-01-16T06:18:57;19.98;;;4.22;;
32780;SDS011;19136;47.032;15.502;2024-01-16T06:21:23;21.38;;;4.60;;
32780;SDS011;19136;47.032;15.502;2024-01-16T06:23:48;18.63;;;4.55;;
32780;SDS011;19136;47.032;15.502;2024-01-16T06:26:14;23.52;;;5.05;;
32780;SDS011;19136;47.032;15.502;2024-01-16T06:28:40;20.10;;;4.22;;
32780;SDS011;19136;47.032;15.502;2024-01-16T06:31:08;21.23;;;4.30;;
32780;SDS011;19136;47.032;15.502;2024-01-16T06:33:34;21.15;;;5.55;;
32780;SDS011;19136;47.032;15.502;2024-01-16T06:35:59;23.55;;;5.05;;
32780;SDS011;19136;47.032;15.502;2024-01-16T06:38:25;24.00;;;4.85;;
32780;SDS011;19136;47.032;15.502;2024-01-16T06:40:50;19.80;;;4.82;;
32780;SDS011;19136;47.032;15.502;2024-01-16T06:43:16;13.05;;;4.85;;
32780;SDS011;19136;47.032;15.502;2024-01-16T06:45:42;12.15;;;4.75;;
32780;SDS011;19136;47.032;15.502;2024-01-16T06:48:07;14.57;;;5.07;;
32780;SDS011;19136;47.032;15.502;2024-01-16T06:50:33;20.80;;;5.50;;
32780;SDS011;19136;47.032;15.502;2024-01-16T06:52:58;21.48;;;4.95;;
32780;SDS011;19136;47.032;15.502;2024-01-16T06:55:24;22.58;;;9.48;;
32780;SDS011;19136;47.032;15.502;2024-01-16T06:57:49;24.02;;;9.48;;
32780;SDS011;19136;47.032;15.502;2024-01-16T07:00:15;31.17;;;9.25;;
32780;SDS011;19136;47.032;15.502;2024-01-16T07:02:41;41.33;;;9.77;;
32780;SDS011;19136;47.032;15.502;2024-01-16T07:05:09;25.25;;;7.03;;
32780;SDS011;19136;47.032;15.502;2024-01-16T07:07:34;27.58;;;6.20;;
32780;SDS011;19136;47.032;15.502;2024-01-16T07:10:00;31.13;;;5.88;;
32780;SDS011;19136;47.032;15.502;2024-01-16T07:12:25;40.35;;;6.32;;
32780;SDS011;19136;47.032;15.502;2024-01-16T07:14:51;25.58;;;5.97;;
32780;SDS011;19136;47.032;15.502;2024-01-16T07:17:18;28.60;;;5.25;;
32780;SDS011;19136;47.032;15.502;2024-01-16T07:19:45;19.05;;;5.90;;
32780;SDS011;19136;47.032;15.502;2024-01-16T07:22:10;15.93;;;5.78;;
32780;SDS011;19136;47.032;15.502;2024-01-16T07:24:35;16.42;;;5.70;;
32780;SDS011;19136;47.032;15.502;2024-01-16T07:27:01;21.75;;;5.80;;
32780;SDS011;19136;47.032;15.502;2024-01-16T07:29:26;16.33;;;5.88;;
32780;SDS011;19136;47.032;15.502;2024-01-16T07:31:52;23.65;;;5.28;;
32780;SDS011;19136;47.032;15.502;2024-01-16T07:34:18;15.00;;;4.78;;
32780;SDS011;19136;47.032;15.502;2024-01-16T07:36:47;16.75;;;5.72;;
32780;SDS011;19136;47.032;15.502;2024-01-16T07:39:13;20.67;;;6.80;;
32780;SDS011;19136;47.032;15.502;2024-01-16T07:41:39;35.08;;;7.10;;
32780;SDS011;19136;47.032;15.502;2024-01-16T07:44:05;28.05;;;7.25;;
32780;SDS011;19136;47.032;15.502;2024-01-16T07:46:33;25.80;;;5.78;;
32780;SDS011;19136;47.032;15.502;2024-01-16T07:48:58;19.90;;;6.32;;
32780;SDS011;19136;47.032;15.502;2024-01-16T07:51:24;17.60;;;5.90;;
32780;SDS011;19136;47.032;15.502;2024-01-16T07:53:51;15.57;;;7.28;;
32780;SDS011;19136;47.032;15.502;2024-01-16T07:56:17;28.27;;;8.13;;
32780;SDS011;19136;47.032;15.502;2024-01-16T07:58:42;21.35;;;7.00;;
32780;SDS011;19136;47.032;15.502;2024-01-16T08:01:08;21.90;;;6.10;;
32780;SDS011;19136;47.032;15.502;2024-01-16T08:03:33;30.58;;;5.70;;
32780;SDS011;19136;47.032;15.502;2024-01-16T08:05:59;19.70;;;5.57;;
32780;SDS011;19136;47.032;15.502;2024-01-16T08:08:24;15.85;;;4.90;;
32780;SDS011;19136;47.032;15.502;2024-01-16T08:10:53;19.75;;;4.30;;
32780;SDS011;19136;47.032;15.502;2024-01-16T08:13:19;20.80;;;4.85;;
32780;SDS011;19136;47.032;15.502;2024-01-16T08:15:44;18.77;;;4.63;;
32780;SDS011;19136;47.032;15.502;2024-01-16T08:18:09;16.67;;;5.05;;
32780;SDS011;19136;47.032;15.502;2024-01-16T08:20:35;14.40;;;4.28;;
32780;SDS011;19136;47.032;15.502;2024-01-16T08:23:00;22.48;;;4.68;;
32780;SDS011;19136;47.032;15.502;2024-01-16T08:25:26;14.95;;;4.78;;
32780;SDS011;19136;47.032;15.502;2024-01-16T08:27:51;14.98;;;4.68;;
32780;SDS011;19136;47.032;15.502;2024-01-16T08:30:17;27.35;;;4.63;;
32780;SDS011;19136;47.032;15.502;2024-01-16T08:32:42;27.27;;;5.05;;
32780;SDS011;19136;47.032;15.502;2024-01-16T08:35:08;26.90;;;9.65;;
32780;SDS011;19136;47.032;15.502;2024-01-16T08:37:34;22.73;;;9.43;;
32780;SDS011;19136;47.032;15.502;2024-01-16T08:39:59;37.25;;;11.68;;
32780;SDS011;19136;47.032;15.502;2024-01-16T08:42:25;23.90;;;9.10;;
32780;SDS011;19136;47.032;15.502;2024-01-16T08:44:50;21.75;;;6.80;;
32780;SDS011;19136;47.032;15.502;2024-01-16T08:47:16;26.67;;;5.05;;
32780;SDS011;19136;47.032;15.502;2024-01-16T08:49:41;31.65;;;5.32;;
32780;SDS011;19136;47.032;15.502;2024-01-16T08:52:07;23.02;;;5.32;;
32780;SDS011;19136;47.032;15.502;2024-01-16T08:54:32;28.65;;;5.90;;
32780;SDS011;19136;47.032;15.502;2024-01-16T08:56:58;19.23;;;5.05;;
32780;SDS011;19136;47.032;15.502;2024-01-16T08:59:25;17.75;;;4.95;;
32780;SDS011;19136;47.032;15.502;2024-01-16T09:01:50;27.95;;;5.32;;
32780;SDS011;19136;47.032;15.502;2024-01-16T09:04:17;26.23;;;6.05;;
32780;SDS011;19136;47.032;15.502;2024-01-16T09:06:42;37.55;;;6.78;;
32780;SDS011;19136;47.032;15.502;2024-01-16T09:09:14;27.73;;;5.15;;
32780;SDS011;19136;47.032;15.502;2024-01-16T09:11:41;30.10;;;5.75;;
32780;SDS011;19136;47.032;15.502;2024-01-16T09:14:07;20.63;;;6.20;;
32780;SDS011;19136;47.032;15.502;2024-01-16T09:16:32;24.52;;;5.55;;
32780;SDS011;19136;47.032;15.502;2024-01-16T09:18:58;22.23;;;5.82;;
32780;SDS011;19136;47.032;15.502;2024-01-16T09:21:24;18.95;;;5.60;;
32780;SDS011;19136;47.032;15.502;2024-01-16T09:23:49;45.60;;;7.93;;
32780;SDS011;19136;47.032;15.502;2024-01-16T09:26:18;22.45;;;6.07;;
32780;SDS011;19136;47.032;15.502;2024-01-16T09:28:43;17.67;;;5.40;;
32780;SDS011;19136;47.032;15.502;2024-01-16T09:31:10;25.42;;;6.70;;
32780;SDS011;19136;47.032;15.502;2024-01-16T09:33:35;10.57;;;4.45;;
32780;SDS011;19136;47.032;15.502;2024-01-16T09:36:01;15.10;;;4.55;;
32780;SDS011;19136;47.032;15.502;2024-01-16T09:38:26;17.80;;;5.07;;
32780;SDS011;19136;47.032;15.502;2024-01-16T09:40:52;19.55;;;4.78;;
32780;SDS011;19136;47.032;15.502;2024-01-16T09:43:21;8.27;;;4.13;;
32780;SDS011;19136;47.032;15.502;2024-01-16T09:45:47;10.00;;;4.32;;
32780;SDS011;19136;47.032;15.502;2024-01-16T09:48:13;6.57;;;3.63;;
32780;SDS011;19136;47.032;15.502;2024-01-16T09:50:42;8.57;;;4.00;;
32780;SDS011;19136;47.032;15.502;2024-01-16T09:53:07;7.47;;;3.45;;
32780;SDS011;19136;47.032;15.502;2024-01-16T09:55:33;6.93;;;3.28;;
32780;SDS011;19136;47.032;15.502;2024-01-16T09:57:59;7.53;;;3.22;;
32780;SDS011;19136;47.032;15.502;2024-01-16T10:00:24;8.80;;;4.10;;
32780;SDS011;19136;47.032;15.502;2024-01-16T10:02:52;12.60;;;3.78;;
32780;SDS011;19136;47.032;15.502;2024-01-16T10:05:18;11.27;;;3.97;;
32780;SDS011;19136;47.032;15.502;2024-01-16T10:07:43;10.18;;;3.40;;
32780;SDS011;19136;47.032;15.502;2024-01-16T10:10:10;8.88;;;3.95;;
32780;SDS011;19136;47.032;15.502;2024-01-16T10:12:36;5.82;;;3.22;;
32780;SDS011;19136;47.032;15.502;2024-01-16T10:15:02;7.32;;;3.88;;
32780;SDS011;19136;47.032;15.502;2024-01-16T10:17:37;11.13;;;3.40;;
32780;SDS011;19136;47.032;15.502;2024-01-16T10:20:02;11.85;;;3.42;;
32780;SDS011;19136;47.032;15.502;2024-01-16T10:22:33;10.50;;;3.80;;
32780;SDS011;19136;47.032;15.502;2024-01-16T10:25:09;11.18;;;3.50;;
32780;SDS011;19136;47.032;15.502;2024-01-16T10:27:35;16.50;;;3.60;;
32780;SDS011;19136;47.032;15.502;2024-01-16T10:30:04;16.17;;;4.82;;
32780;SDS011;19136;47.032;15.502;2024-01-16T10:32:30;11.90;;;4.70;;
32780;SDS011;19136;47.032;15.502;2024-01-16T10:35:02;8.32;;;3.92;;
32780;SDS011;19136;47.032;15.502;2024-01-16T10:37:42;12.73;;;4.18;;
32780;SDS011;19136;47.032;15.502;2024-01-16T10:40:08;9.80;;;3.63;;
32780;SDS011;19136;47.032;15.502;2024-01-16T10:42:34;7.80;;;3.47;;
32780;SDS011;19136;47.032;15.502;2024-01-16T10:44:59;11.48;;;2.80;;
32780;SDS011;19136;47.032;15.502;2024-01-16T10:47:27;7.20;;;3.20;;
32780;SDS011;19136;47.032;15.502;2024-01-16T10:49:54;7.72;;;2.95;;
32780;SDS011;19136;47.032;15.502;2024-01-16T10:52:21;12.60;;;2.97;;
32780;SDS011;19136;47.032;15.502;2024-01-16T10:54:50;11.95;;;3.15;;
32780;SDS011;19136;47.032;15.502;2024-01-16T10:57:16;10.13;;;2.72;;
32780;SDS011;19136;47.032;15.502;2024-01-16T10:59:46;7.22;;;2.03;;
32780;SDS011;19136;47.032;15.502;2024-01-16T11:02:14;5.93;;;1.87;;
32780;SDS011;19136;47.032;15.502;2024-01-16T11:04:40;4.28;;;1.92;;
32780;SDS011;19136;47.032;15.502;2024-01-16T11:07:07;3.75;;;1.30;;
32780;SDS011;19136;47.032;15.502;2024-01-16T11:09:35;5.65;;;1.73;;
32780;SDS011;19136;47.032;15.502;2024-01-16T11:12:01;16.08;;;1.92;;
32780;SDS011;19136;47.032;15.502;2024-01-16T11:14:27;5.53;;;1.88;;
32780;SDS011;19136;47.032;15.502;2024-01-16T11:16:53;6.03;;;2.05;;
32780;SDS011;19136;47.032;15.502;2024-01-16T11:19:21;6.28;;;1.85;;
32780;SDS011;19136;47.032;15.502;2024-01-16T11:21:46;9.15;;;2.45;;
32780;SDS011;19136;47.032;15.502;2024-01-16T11:24:12;7.75;;;2.17;;
32780;SDS011;19136;47.032;15.502;2024-01-16T11:26:41;7.32;;;3.75;;
32780;SDS011;19136;47.032;15.502;2024-01-16T11:31:52;13.13;;;4.95;;
32780;SDS011;19136;47.032;15.502;2024-01-16T11:37:02;10.40;;;4.60;;
32780;SDS011;19136;47.032;15.502;2024-01-16T11:39:30;9.45;;;3.30;;
32780;SDS011;19136;47.032;15.502;2024-01-16T11:41:57;16.23;;;4.28;;
32780;SDS011;19136;47.032;15.502;2024-01-16T11:47:07;8.85;;;3.17;;
32780;SDS011;19136;47.032;15.502;2024-01-16T11:49:37;10.32;;;3.47;;
32780;SDS011;19136;47.032;15.502;2024-01-16T11:52:02;7.20;;;3.50;;
32780;SDS011;19136;47.032;15.502;2024-01-16T11:54:28;9.68;;;4.00;;
32780;SDS011;19136;47.032;15.502;2024-01-16T12:02:28;9.18;;;4.00;;
32780;SDS011;19136;47.032;15.502;2024-01-16T12:04:54;8.15;;;4.32;;
32780;SDS011;19136;47.032;15.502;2024-01-16T12:07:22;12.30;;;4.10;;
32780;SDS011;19136;47.032;15.502;2024-01-16T12:09:47;9.93;;;3.90;;
32780;SDS011;19136;47.032;15.502;2024-01-16T12:12:14;5.75;;;2.78;;
32780;SDS011;19136;47.032;15.502;2024-01-16T12:14:40;5.53;;;3.15;;
32780;SDS011;19136;47.032;15.502;2024-01-16T12:17:12;7.18;;;3.25;;
32780;SDS011;19136;47.032;15.502;2024-01-16T12:19:39;5.15;;;2.65;;
32780;SDS011;19136;47.032;15.502;2024-01-16T12:22:10;8.00;;;2.70;;
32780;SDS011;19136;47.032;15.502;2024-01-16T12:24:38;7.57;;;3.40;;
32780;SDS011;19136;47.032;15.502;2024-01-16T12:27:04;7.20;;;2.67;;
32780;SDS011;19136;47.032;15.502;2024-01-16T12:29:30;8.80;;;2.97;;
32780;SDS011;19136;47.032;15.502;2024-01-16T12:32:09;10.77;;;3.13;;
32780;SDS011;19136;47.032;15.502;2024-01-16T12:34:35;4.07;;;2.55;;
32780;SDS011;19136;47.032;15.502;2024-01-16T12:37:04;5.43;;;2.40;;
32780;SDS011;19136;47.032;15.502;2024-01-16T12:39:29;4.68;;;2.30;;
32780;SDS011;19136;47.032;15.502;2024-01-16T12:41:55;5.80;;;2.75;;
32780;SDS011;19136;47.032;15.502;2024-01-16T12:44:26;6.13;;;3.10;;
32780;SDS011;19136;47.032;15.502;2024-01-16T12:46:54;5.70;;;2.63;;
32780;SDS011;19136;47.032;15.502;2024-01-16T12:49:21;6.75;;;2.85;;
32780;SDS011;19136;47.032;15.502;2024-01-16T12:51:47;10.07;;;2.95;;
32780;SDS011;19136;47.032;15.502;2024-01-16T12:54:13;9.02;;;2.85;;
32780;SDS011;19136;47.032;15.502;2024-01-16T12:56:39;7.05;;;2.67;;
32780;SDS011;19136;47.032;15.502;2024-01-16T12:59:09;6.28;;;2.83;;
32780;SDS011;19136;47.032;15.502;2024-01-16T13:01:34;11.10;;;2.78;;
32780;SDS011;19136;47.032;15.502;2024-01-16T13:04:03;6.72;;;2.90;;
32780;SDS011;19136;47.032;15.502;2024-01-16T13:06:28;7.03;;;2.03;;
32780;SDS011;19136;47.032;15.502;2024-01-16T13:09:07;11.05;;;2.60;;
32780;SDS011;19136;47.032;15.502;2024-01-16T13:11:45;4.78;;;2.40;;
32780;SDS011;19136;47.032;15.502;2024-01-16T13:14:10;7.95;;;2.38;;
32780;SDS011;19136;47.032;15.502;2024-01-16T13:16:36;4.85;;;2.35;;
32780;SDS011;19136;47.032;15.502;2024-01-16T13:19:01;9.45;;;2.55;;
32780;SDS011;19136;47.032;15.502;2024-01-16T13:21:29;5.18;;;2.45;;
32780;SDS011;19136;47.032;15.502;2024-01-16T13:23:54;6.05;;;2.35;;
32780;SDS011;19136;47.032;15.502;2024-01-16T13:26:20;5.47;;;2.70;;
32780;SDS011;19136;47.032;15.502;2024-01-16T13:28:45;6.53;;;2.30;;
32780;SDS011;19136;47.032;15.502;2024-01-16T13:31:13;5.53;;;2.50;;
32780;SDS011;19136;47.032;15.502;2024-01-16T13:33:38;5.35;;;2.28;;
32780;SDS011;19136;47.032;15.502;2024-01-16T13:36:07;5.55;;;2.50;;
32780;SDS011;19136;47.032;15.502;2024-01-16T13:38:33;7.35;;;1.60;;
32780;SDS011;19136;47.032;15.502;2024-01-16T13:40:58;6.07;;;2.50;;
32780;SDS011;19136;47.032;15.502;2024-01-16T13:43:24;5.13;;;2.55;;
32780;SDS011;19136;47.032;15.502;2024-01-16T13:45:49;4.70;;;2.45;;
32780;SDS011;19136;47.032;15.502;2024-01-16T13:48:15;5.75;;;2.88;;
32780;SDS011;19136;47.032;15.502;2024-01-16T13:50:41;8.35;;;3.25;;
32780;SDS011;19136;47.032;15.502;2024-01-16T13:53:07;6.10;;;2.92;;
32780;SDS011;19136;47.032;15.502;2024-01-16T13:55:33;10.43;;;3.17;;
32780;SDS011;19136;47.032;15.502;2024-01-16T13:57:58;8.88;;;3.55;;
32780;SDS011;19136;47.032;15.502;2024-01-16T14:00:24;5.60;;;2.92;;
32780;SDS011;19136;47.032;15.502;2024-01-16T14:02:50;12.90;;;6.30;;
32780;SDS011;19136;47.032;15.502;2024-01-16T14:05:19;8.63;;;4.10;;
32780;SDS011;19136;47.032;15.502;2024-01-16T14:07:45;8.15;;;4.47;;
32780;SDS011;19136;47.032;15.502;2024-01-16T14:10:16;11.35;;;4.30;;
32780;SDS011;19136;47.032;15.502;2024-01-16T14:12:42;17.00;;;5.18;;
32780;SDS011;19136;47.032;15.502;2024-01-16T14:15:15;12.07;;;4.88;;
32780;SDS011;19136;47.032;15.502;2024-01-16T14:17:54;12.02;;;5.45;;
32780;SDS011;19136;47.032;15.502;2024-01-16T14:20:20;9.10;;;5.03;;
32780;SDS011;19136;47.032;15.502;2024-01-16T14:22:49;11.05;;;5.63;;
32780;SDS011;19136;47.032;15.502;2024-01-16T14:25:15;14.05;;;5.90;;
32780;SDS011;19136;47.032;15.502;2024-01-16T14:28:00;13.85;;;6.65;;
32780;SDS011;19136;47.032;15.502;2024-01-16T14:30:28;15.57;;;6.85;;
32780;SDS011;19136;47.032;15.502;2024-01-16T14:32:54;18.35;;;7.18;;
32780;SDS011;19136;47.032;15.502;2024-01-16T14:35:20;16.58;;;6.82;;
32780;SDS011;19136;47.032;15.502;2024-01-16T14:37:46;12.77;;;6.72;;